sensor_id;sensor_type;location;lat;lon;timestamp;P1;durP1;ratioP1;P2;durP2;ratioP2
39322;SDS011;25036;53.638;10.134;2022-10-15T00:00:45;8.83;;;5.27;;
39322;SDS011;25036;53.638;10.134;2022-10-15T00:01:46;7.18;;;4.97;;
39322;SDS011;25036;53.638;10.134;2022-10-15T00:02:46;5.47;;;4.97;;
39322;SDS011;25036;53.638;10.134;2022-10-15T00:03:47;7.03;;;5.03;;
39322;SDS011;25036;53.638;10.134;2022-10-15T00:04:47;6.00;;;5.10;;
39322;SDS011;25036;53.638;10.134;2022-10-15T00:05:47;6.75;;;5.18;;
39322;SDS011;25036;53.638;10.134;2022-10-15T00:06:47;5.63;;;4.70;;
39322;SDS011;25036;53.638;10.134;2022-10-15T00:07:47;8.23;;;5.27;;
39322;SDS011;25036;53.638;10.134;2022-10-15T00:08:48;6.17;;;5.33;;
39322;SDS011;25036;53.638;10.134;2022-10-15T00:09:48;7.57;;;5.03;;
39322;SDS011;25036;53.638;10.134;2022-10-15T00:10:48;6.50;;;5.03;;
39322;SDS011;25036;53.638;10.134;2022-10-15T00:11:48;5.77;;;5.10;;
39322;SDS011;25036;53.638;10.134;2022-10-15T00:12:48;6.00;;;5.40;;
39322;SDS011;25036;53.638;10.134;2022-10-15T00:13:49;5.68;;;4.88;;
39322;SDS011;25036;53.638;10.134;2022-10-15T00:14:51;7.00;;;4.93;;
39322;SDS011;25036;53.638;10.134;2022-10-15T00:15:51;6.90;;;5.03;;
39322;SDS011;25036;53.638;10.134;2022-10-15T00:16:51;5.93;;;5.13;;
39322;SDS011;25036;53.638;10.134;2022-10-15T00:17:51;6.10;;;5.40;;
39322;SDS011;25036;53.638;10.134;2022-10-15T00:18:53;8.03;;;5.13;;
39322;SDS011;25036;53.638;10.134;2022-10-15T00:19:54;7.05;;;5.93;;
39322;SDS011;25036;53.638;10.134;2022-10-15T00:20:54;6.03;;;5.00;;
39322;SDS011;25036;53.638;10.134;2022-10-15T00:21:54;6.60;;;5.10;;
39322;SDS011;25036;53.638;10.134;2022-10-15T00:22:54;6.78;;;5.30;;
39322;SDS011;25036;53.638;10.134;2022-10-15T00:23:54;6.40;;;5.70;;
39322;SDS011;25036;53.638;10.134;2022-10-15T00:24:54;6.82;;;5.97;;
39322;SDS011;25036;53.638;10.134;2022-10-15T00:26:02;6.93;;;5.35;;
39322;SDS011;25036;53.638;10.134;2022-10-15T00:27:02;6.20;;;5.22;;
39322;SDS011;25036;53.638;10.134;2022-10-15T00:28:02;8.05;;;5.63;;
39322;SDS011;25036;53.638;10.134;2022-10-15T00:29:02;7.73;;;5.30;;
39322;SDS011;25036;53.638;10.134;2022-10-15T00:30:03;6.75;;;5.80;;
39322;SDS011;25036;53.638;10.134;2022-10-15T00:31:08;7.65;;;5.50;;
39322;SDS011;25036;53.638;10.134;2022-10-15T00:32:08;6.68;;;5.88;;
39322;SDS011;25036;53.638;10.134;2022-10-15T00:33:08;6.40;;;5.23;;
39322;SDS011;25036;53.638;10.134;2022-10-15T00:34:08;6.83;;;5.67;;
39322;SDS011;25036;53.638;10.134;2022-10-15T00:35:09;7.50;;;6.15;;
39322;SDS011;25036;53.638;10.134;2022-10-15T00:36:11;6.70;;;5.93;;
39322;SDS011;25036;53.638;10.134;2022-10-15T00:37:11;7.10;;;5.88;;
39322;SDS011;25036;53.638;10.134;2022-10-15T00:38:12;6.67;;;5.70;;
39322;SDS011;25036;53.638;10.134;2022-10-15T00:39:12;9.33;;;6.10;;
39322;SDS011;25036;53.638;10.134;2022-10-15T00:40:12;7.40;;;5.90;;
39322;SDS011;25036;53.638;10.134;2022-10-15T00:41:19;6.90;;;5.95;;
39322;SDS011;25036;53.638;10.134;2022-10-15T00:42:19;8.27;;;6.22;;
39322;SDS011;25036;53.638;10.134;2022-10-15T00:44:52;7.45;;;6.45;;
39322;SDS011;25036;53.638;10.134;2022-10-15T00:45:53;8.18;;;6.05;;
39322;SDS011;25036;53.638;10.134;2022-10-15T00:46:54;7.53;;;5.90;;
39322;SDS011;25036;53.638;10.134;2022-10-15T00:47:55;6.55;;;5.93;;
39322;SDS011;25036;53.638;10.134;2022-10-15T00:48:56;8.57;;;6.40;;
39322;SDS011;25036;53.638;10.134;2022-10-15T00:51:06;8.57;;;6.70;;
39322;SDS011;25036;53.638;10.134;2022-10-15T00:52:15;8.93;;;6.03;;
39322;SDS011;25036;53.638;10.134;2022-10-15T00:53:16;7.88;;;6.70;;
39322;SDS011;25036;53.638;10.134;2022-10-15T00:54:16;7.00;;;6.30;;
39322;SDS011;25036;53.638;10.134;2022-10-15T00:55:18;9.40;;;6.65;;
39322;SDS011;25036;53.638;10.134;2022-10-15T00:56:21;6.70;;;6.00;;
39322;SDS011;25036;53.638;10.134;2022-10-15T00:57:23;9.55;;;6.25;;
39322;SDS011;25036;53.638;10.134;2022-10-15T00:58:24;8.85;;;6.45;;
39322;SDS011;25036;53.638;10.134;2022-10-15T00:59:27;8.73;;;6.72;;
39322;SDS011;25036;53.638;10.134;2022-10-15T01:00:28;8.38;;;6.80;;
39322;SDS011;25036;53.638;10.134;2022-10-15T01:01:28;10.77;;;7.15;;
39322;SDS011;25036;53.638;10.134;2022-10-15T01:02:29;10.23;;;7.10;;
39322;SDS011;25036;53.638;10.134;2022-10-15T01:03:29;8.60;;;6.77;;
39322;SDS011;25036;53.638;10.134;2022-10-15T01:04:29;9.87;;;8.00;;
39322;SDS011;25036;53.638;10.134;2022-10-15T01:05:29;8.60;;;7.78;;
39322;SDS011;25036;53.638;10.134;2022-10-15T01:06:29;8.82;;;7.43;;
39322;SDS011;25036;53.638;10.134;2022-10-15T01:07:29;8.70;;;7.90;;
39322;SDS011;25036;53.638;10.134;2022-10-15T01:08:30;8.10;;;7.30;;
39322;SDS011;25036;53.638;10.134;2022-10-15T01:09:30;10.17;;;8.20;;
39322;SDS011;25036;53.638;10.134;2022-10-15T01:10:31;8.10;;;7.22;;
39322;SDS011;25036;53.638;10.134;2022-10-15T01:11:37;8.60;;;7.78;;
39322;SDS011;25036;53.638;10.134;2022-10-15T01:14:01;8.45;;;7.22;;
39322;SDS011;25036;53.638;10.134;2022-10-15T01:18:58;9.48;;;7.80;;
39322;SDS011;25036;53.638;10.134;2022-10-15T01:21:00;11.15;;;8.00;;
39322;SDS011;25036;53.638;10.134;2022-10-15T01:22:03;8.77;;;7.88;;
39322;SDS011;25036;53.638;10.134;2022-10-15T01:24:20;9.77;;;8.63;;
39322;SDS011;25036;53.638;10.134;2022-10-15T01:29:28;10.05;;;8.65;;
39322;SDS011;25036;53.638;10.134;2022-10-15T01:30:38;13.00;;;8.75;;
39322;SDS011;25036;53.638;10.134;2022-10-15T01:31:42;10.48;;;9.35;;
39322;SDS011;25036;53.638;10.134;2022-10-15T01:33:58;11.82;;;9.90;;
39322;SDS011;25036;53.638;10.134;2022-10-15T01:36:13;10.65;;;9.38;;
39322;SDS011;25036;53.638;10.134;2022-10-15T01:41:11;10.98;;;9.73;;
39322;SDS011;25036;53.638;10.134;2022-10-15T01:42:14;11.63;;;10.43;;
39322;SDS011;25036;53.638;10.134;2022-10-15T01:44:17;12.38;;;11.02;;
39322;SDS011;25036;53.638;10.134;2022-10-15T01:44:49;12.77;;;11.48;;
39322;SDS011;25036;53.638;10.134;2022-10-15T01:45:52;12.20;;;10.43;;
39322;SDS011;25036;53.638;10.134;2022-10-15T01:46:57;13.18;;;11.10;;
39322;SDS011;25036;53.638;10.134;2022-10-15T01:48:04;13.52;;;11.18;;
39322;SDS011;25036;53.638;10.134;2022-10-15T01:49:05;13.60;;;11.23;;
39322;SDS011;25036;53.638;10.134;2022-10-15T01:50:07;12.93;;;10.95;;
39322;SDS011;25036;53.638;10.134;2022-10-15T01:51:09;14.05;;;11.80;;
39322;SDS011;25036;53.638;10.134;2022-10-15T01:52:15;12.52;;;11.20;;
39322;SDS011;25036;53.638;10.134;2022-10-15T01:53:18;12.95;;;11.63;;
39322;SDS011;25036;53.638;10.134;2022-10-15T01:54:25;12.43;;;11.13;;
39322;SDS011;25036;53.638;10.134;2022-10-15T01:55:26;12.00;;;10.80;;
39322;SDS011;25036;53.638;10.134;2022-10-15T01:56:26;15.50;;;12.18;;
39322;SDS011;25036;53.638;10.134;2022-10-15T01:57:27;13.15;;;11.85;;
39322;SDS011;25036;53.638;10.134;2022-10-15T01:58:29;13.30;;;12.00;;
39322;SDS011;25036;53.638;10.134;2022-10-15T01:59:30;12.90;;;11.68;;
39322;SDS011;25036;53.638;10.134;2022-10-15T02:00:30;12.00;;;10.73;;
39322;SDS011;25036;53.638;10.134;2022-10-15T02:01:30;13.23;;;11.70;;
39322;SDS011;25036;53.638;10.134;2022-10-15T02:02:31;12.67;;;11.43;;
39322;SDS011;25036;53.638;10.134;2022-10-15T02:03:31;13.13;;;11.57;;
39322;SDS011;25036;53.638;10.134;2022-10-15T02:04:31;13.40;;;11.60;;
39322;SDS011;25036;53.638;10.134;2022-10-15T02:05:33;13.80;;;12.38;;
39322;SDS011;25036;53.638;10.134;2022-10-15T02:06:38;13.35;;;11.38;;
39322;SDS011;25036;53.638;10.134;2022-10-15T02:07:46;13.65;;;12.25;;
39322;SDS011;25036;53.638;10.134;2022-10-15T02:08:55;14.57;;;12.10;;
39322;SDS011;25036;53.638;10.134;2022-10-15T02:10:04;13.95;;;12.20;;
39322;SDS011;25036;53.638;10.134;2022-10-15T02:11:16;12.52;;;11.23;;
39322;SDS011;25036;53.638;10.134;2022-10-15T02:12:24;13.10;;;11.75;;
39322;SDS011;25036;53.638;10.134;2022-10-15T02:13:40;13.20;;;11.85;;
39322;SDS011;25036;53.638;10.134;2022-10-15T02:14:46;13.98;;;12.25;;
39322;SDS011;25036;53.638;10.134;2022-10-15T02:16:52;14.57;;;12.93;;
39322;SDS011;25036;53.638;10.134;2022-10-15T02:17:58;13.70;;;11.90;;
39322;SDS011;25036;53.638;10.134;2022-10-15T02:20:11;12.68;;;11.45;;
39322;SDS011;25036;53.638;10.134;2022-10-15T02:22:33;13.73;;;12.43;;
39322;SDS011;25036;53.638;10.134;2022-10-15T02:24:49;14.43;;;12.68;;
39322;SDS011;25036;53.638;10.134;2022-10-15T02:25:50;14.98;;;11.75;;
39322;SDS011;25036;53.638;10.134;2022-10-15T02:26:51;13.77;;;12.32;;
39322;SDS011;25036;53.638;10.134;2022-10-15T02:27:53;12.55;;;11.18;;
39322;SDS011;25036;53.638;10.134;2022-10-15T02:28:55;14.52;;;12.85;;
39322;SDS011;25036;53.638;10.134;2022-10-15T02:29:56;13.90;;;12.40;;
39322;SDS011;25036;53.638;10.134;2022-10-15T02:30:58;14.65;;;13.13;;
39322;SDS011;25036;53.638;10.134;2022-10-15T02:31:58;14.25;;;12.75;;
39322;SDS011;25036;53.638;10.134;2022-10-15T02:32:59;16.20;;;12.23;;
39322;SDS011;25036;53.638;10.134;2022-10-15T02:34:01;15.23;;;13.38;;
39322;SDS011;25036;53.638;10.134;2022-10-15T02:35:02;14.15;;;12.40;;
39322;SDS011;25036;53.638;10.134;2022-10-15T02:36:02;13.95;;;12.18;;
39322;SDS011;25036;53.638;10.134;2022-10-15T02:37:03;15.88;;;12.38;;
39322;SDS011;25036;53.638;10.134;2022-10-15T02:38:04;13.90;;;12.48;;
39322;SDS011;25036;53.638;10.134;2022-10-15T02:39:06;13.05;;;11.68;;
39322;SDS011;25036;53.638;10.134;2022-10-15T02:40:09;14.48;;;12.50;;
39322;SDS011;25036;53.638;10.134;2022-10-15T02:41:09;18.63;;;13.30;;
39322;SDS011;25036;53.638;10.134;2022-10-15T02:42:10;16.42;;;12.10;;
39322;SDS011;25036;53.638;10.134;2022-10-15T02:43:12;14.15;;;12.38;;
39322;SDS011;25036;53.638;10.134;2022-10-15T02:44:12;14.93;;;13.15;;
39322;SDS011;25036;53.638;10.134;2022-10-15T02:45:12;14.33;;;12.07;;
39322;SDS011;25036;53.638;10.134;2022-10-15T02:46:13;13.60;;;12.20;;
39322;SDS011;25036;53.638;10.134;2022-10-15T02:47:14;14.65;;;12.68;;
39322;SDS011;25036;53.638;10.134;2022-10-15T02:48:15;14.27;;;12.87;;
39322;SDS011;25036;53.638;10.134;2022-10-15T02:49:15;15.50;;;12.98;;
39322;SDS011;25036;53.638;10.134;2022-10-15T02:50:15;14.70;;;13.15;;
39322;SDS011;25036;53.638;10.134;2022-10-15T02:51:15;18.10;;;13.23;;
39322;SDS011;25036;53.638;10.134;2022-10-15T02:52:15;14.77;;;13.20;;
39322;SDS011;25036;53.638;10.134;2022-10-15T02:53:15;15.47;;;12.77;;
39322;SDS011;25036;53.638;10.134;2022-10-15T02:54:16;15.80;;;13.40;;
39322;SDS011;25036;53.638;10.134;2022-10-15T02:55:16;18.08;;;13.02;;
39322;SDS011;25036;53.638;10.134;2022-10-15T02:56:16;14.50;;;13.00;;
39322;SDS011;25036;53.638;10.134;2022-10-15T02:57:16;15.82;;;13.45;;
39322;SDS011;25036;53.638;10.134;2022-10-15T02:58:17;16.77;;;14.00;;
39322;SDS011;25036;53.638;10.134;2022-10-15T02:59:17;14.43;;;12.87;;
39322;SDS011;25036;53.638;10.134;2022-10-15T03:00:18;15.35;;;13.48;;
39322;SDS011;25036;53.638;10.134;2022-10-15T03:01:18;14.43;;;12.65;;
39322;SDS011;25036;53.638;10.134;2022-10-15T03:02:19;16.42;;;13.63;;
39322;SDS011;25036;53.638;10.134;2022-10-15T03:03:19;16.17;;;13.40;;
39322;SDS011;25036;53.638;10.134;2022-10-15T03:04:19;16.17;;;14.20;;
39322;SDS011;25036;53.638;10.134;2022-10-15T03:05:19;19.75;;;14.20;;
39322;SDS011;25036;53.638;10.134;2022-10-15T03:06:19;16.20;;;14.03;;
39322;SDS011;25036;53.638;10.134;2022-10-15T03:07:20;15.67;;;14.00;;
39322;SDS011;25036;53.638;10.134;2022-10-15T03:08:20;17.90;;;14.57;;
39322;SDS011;25036;53.638;10.134;2022-10-15T03:09:20;15.57;;;13.40;;
39322;SDS011;25036;53.638;10.134;2022-10-15T03:10:20;17.30;;;14.17;;
39322;SDS011;25036;53.638;10.134;2022-10-15T03:11:20;18.10;;;13.93;;
39322;SDS011;25036;53.638;10.134;2022-10-15T03:12:20;18.87;;;15.30;;
39322;SDS011;25036;53.638;10.134;2022-10-15T03:13:22;18.15;;;14.32;;
39322;SDS011;25036;53.638;10.134;2022-10-15T03:14:22;18.03;;;14.33;;
39322;SDS011;25036;53.638;10.134;2022-10-15T03:15:22;19.33;;;15.07;;
39322;SDS011;25036;53.638;10.134;2022-10-15T03:16:22;16.03;;;14.33;;
39322;SDS011;25036;53.638;10.134;2022-10-15T03:17:23;15.87;;;13.90;;
39322;SDS011;25036;53.638;10.134;2022-10-15T03:18:23;15.50;;;13.87;;
39322;SDS011;25036;53.638;10.134;2022-10-15T03:19:23;16.42;;;14.20;;
39322;SDS011;25036;53.638;10.134;2022-10-15T03:20:23;15.20;;;13.37;;
39322;SDS011;25036;53.638;10.134;2022-10-15T03:21:23;18.38;;;14.80;;
39322;SDS011;25036;53.638;10.134;2022-10-15T03:22:24;18.63;;;14.23;;
39322;SDS011;25036;53.638;10.134;2022-10-15T03:23:24;16.50;;;14.20;;
39322;SDS011;25036;53.638;10.134;2022-10-15T03:24:24;15.82;;;14.13;;
39322;SDS011;25036;53.638;10.134;2022-10-15T03:25:24;18.10;;;15.03;;
39322;SDS011;25036;53.638;10.134;2022-10-15T03:26:24;17.77;;;14.87;;
39322;SDS011;25036;53.638;10.134;2022-10-15T03:27:25;15.63;;;13.98;;
39322;SDS011;25036;53.638;10.134;2022-10-15T03:28:26;16.75;;;14.93;;
39322;SDS011;25036;53.638;10.134;2022-10-15T03:29:26;16.67;;;14.77;;
39322;SDS011;25036;53.638;10.134;2022-10-15T03:30:26;17.80;;;15.47;;
39322;SDS011;25036;53.638;10.134;2022-10-15T03:31:26;18.43;;;15.20;;
39322;SDS011;25036;53.638;10.134;2022-10-15T03:32:26;19.67;;;15.63;;
39322;SDS011;25036;53.638;10.134;2022-10-15T03:33:26;18.17;;;15.07;;
39322;SDS011;25036;53.638;10.134;2022-10-15T03:34:27;19.35;;;15.07;;
39322;SDS011;25036;53.638;10.134;2022-10-15T03:35:27;19.17;;;15.13;;
39322;SDS011;25036;53.638;10.134;2022-10-15T03:36:27;17.67;;;15.07;;
39322;SDS011;25036;53.638;10.134;2022-10-15T03:37:27;16.93;;;15.10;;
39322;SDS011;25036;53.638;10.134;2022-10-15T03:38:28;17.90;;;14.82;;
39322;SDS011;25036;53.638;10.134;2022-10-15T03:39:28;17.48;;;14.65;;
39322;SDS011;25036;53.638;10.134;2022-10-15T03:40:28;18.53;;;15.83;;
39322;SDS011;25036;53.638;10.134;2022-10-15T03:41:28;19.07;;;14.80;;
39322;SDS011;25036;53.638;10.134;2022-10-15T03:42:28;16.30;;;14.00;;
39322;SDS011;25036;53.638;10.134;2022-10-15T03:43:28;16.38;;;14.50;;
39322;SDS011;25036;53.638;10.134;2022-10-15T03:44:30;16.52;;;14.00;;
39322;SDS011;25036;53.638;10.134;2022-10-15T03:45:30;16.85;;;14.40;;
39322;SDS011;25036;53.638;10.134;2022-10-15T03:46:31;17.77;;;14.30;;
39322;SDS011;25036;53.638;10.134;2022-10-15T03:47:31;17.33;;;14.43;;
39322;SDS011;25036;53.638;10.134;2022-10-15T03:48:31;17.53;;;14.17;;
39322;SDS011;25036;53.638;10.134;2022-10-15T03:49:31;21.57;;;14.77;;
39322;SDS011;25036;53.638;10.134;2022-10-15T03:50:31;19.13;;;14.20;;
39322;SDS011;25036;53.638;10.134;2022-10-15T03:51:31;15.80;;;13.60;;
39322;SDS011;25036;53.638;10.134;2022-10-15T03:52:31;15.97;;;13.23;;
39322;SDS011;25036;53.638;10.134;2022-10-15T03:53:31;15.10;;;13.17;;
39322;SDS011;25036;53.638;10.134;2022-10-15T03:54:32;17.30;;;14.33;;
39322;SDS011;25036;53.638;10.134;2022-10-15T03:55:32;17.13;;;14.37;;
39322;SDS011;25036;53.638;10.134;2022-10-15T03:56:32;16.77;;;13.68;;
39322;SDS011;25036;53.638;10.134;2022-10-15T03:57:32;16.07;;;13.83;;
39322;SDS011;25036;53.638;10.134;2022-10-15T03:58:32;16.30;;;13.50;;
39322;SDS011;25036;53.638;10.134;2022-10-15T03:59:32;16.93;;;12.97;;
39322;SDS011;25036;53.638;10.134;2022-10-15T04:00:33;14.40;;;12.90;;
39322;SDS011;25036;53.638;10.134;2022-10-15T04:01:33;16.27;;;13.57;;
39322;SDS011;25036;53.638;10.134;2022-10-15T04:02:33;15.83;;;13.30;;
39322;SDS011;25036;53.638;10.134;2022-10-15T04:03:33;15.98;;;13.15;;
39322;SDS011;25036;53.638;10.134;2022-10-15T04:04:33;17.43;;;13.23;;
39322;SDS011;25036;53.638;10.134;2022-10-15T04:05:33;15.73;;;12.47;;
39322;SDS011;25036;53.638;10.134;2022-10-15T04:06:34;15.00;;;13.07;;
39322;SDS011;25036;53.638;10.134;2022-10-15T04:07:34;15.77;;;13.10;;
39322;SDS011;25036;53.638;10.134;2022-10-15T04:08:34;15.30;;;12.15;;
39322;SDS011;25036;53.638;10.134;2022-10-15T04:09:34;18.10;;;12.65;;
39322;SDS011;25036;53.638;10.134;2022-10-15T04:10:35;20.27;;;12.87;;
39322;SDS011;25036;53.638;10.134;2022-10-15T04:11:35;16.47;;;12.37;;
39322;SDS011;25036;53.638;10.134;2022-10-15T04:12:35;15.77;;;12.90;;
39322;SDS011;25036;53.638;10.134;2022-10-15T04:13:35;16.65;;;12.77;;
39322;SDS011;25036;53.638;10.134;2022-10-15T04:14:35;14.73;;;12.47;;
39322;SDS011;25036;53.638;10.134;2022-10-15T04:15:38;15.17;;;12.70;;
39322;SDS011;25036;53.638;10.134;2022-10-15T04:16:38;15.05;;;12.25;;
39322;SDS011;25036;53.638;10.134;2022-10-15T04:17:39;14.97;;;11.70;;
39322;SDS011;25036;53.638;10.134;2022-10-15T04:18:39;13.70;;;11.87;;
39322;SDS011;25036;53.638;10.134;2022-10-15T04:19:39;15.27;;;12.53;;
39322;SDS011;25036;53.638;10.134;2022-10-15T04:20:39;13.93;;;12.43;;
39322;SDS011;25036;53.638;10.134;2022-10-15T04:21:41;13.63;;;11.60;;
39322;SDS011;25036;53.638;10.134;2022-10-15T04:22:41;15.45;;;11.90;;
39322;SDS011;25036;53.638;10.134;2022-10-15T04:23:41;14.87;;;11.63;;
39322;SDS011;25036;53.638;10.134;2022-10-15T04:24:42;16.53;;;11.83;;
39322;SDS011;25036;53.638;10.134;2022-10-15T04:25:42;13.77;;;12.07;;
39322;SDS011;25036;53.638;10.134;2022-10-15T04:26:42;13.45;;;11.18;;
39322;SDS011;25036;53.638;10.134;2022-10-15T04:27:42;12.97;;;11.07;;
39322;SDS011;25036;53.638;10.134;2022-10-15T04:28:42;14.57;;;12.13;;
39322;SDS011;25036;53.638;10.134;2022-10-15T04:29:42;15.33;;;11.17;;
39322;SDS011;25036;53.638;10.134;2022-10-15T04:30:43;15.57;;;12.03;;
39322;SDS011;25036;53.638;10.134;2022-10-15T04:31:43;13.63;;;11.60;;
39322;SDS011;25036;53.638;10.134;2022-10-15T04:32:43;14.20;;;11.40;;
39322;SDS011;25036;53.638;10.134;2022-10-15T04:33:43;17.03;;;10.93;;
39322;SDS011;25036;53.638;10.134;2022-10-15T04:34:46;16.48;;;12.20;;
39322;SDS011;25036;53.638;10.134;2022-10-15T04:35:46;14.45;;;11.43;;
39322;SDS011;25036;53.638;10.134;2022-10-15T04:36:46;14.67;;;11.40;;
39322;SDS011;25036;53.638;10.134;2022-10-15T04:37:47;14.50;;;11.83;;
39322;SDS011;25036;53.638;10.134;2022-10-15T04:38:47;14.93;;;11.30;;
39322;SDS011;25036;53.638;10.134;2022-10-15T04:39:47;13.90;;;11.00;;
39322;SDS011;25036;53.638;10.134;2022-10-15T04:40:47;13.23;;;11.13;;
39322;SDS011;25036;53.638;10.134;2022-10-15T04:41:47;13.83;;;11.60;;
39322;SDS011;25036;53.638;10.134;2022-10-15T04:42:47;15.18;;;11.85;;
39322;SDS011;25036;53.638;10.134;2022-10-15T04:43:47;13.63;;;11.43;;
39322;SDS011;25036;53.638;10.134;2022-10-15T04:44:48;15.07;;;12.43;;
39322;SDS011;25036;53.638;10.134;2022-10-15T04:45:48;15.87;;;10.67;;
39322;SDS011;25036;53.638;10.134;2022-10-15T04:46:48;16.08;;;12.65;;
39322;SDS011;25036;53.638;10.134;2022-10-15T04:47:48;18.57;;;11.90;;
39322;SDS011;25036;53.638;10.134;2022-10-15T04:48:48;15.90;;;12.07;;
39322;SDS011;25036;53.638;10.134;2022-10-15T04:49:49;18.35;;;11.95;;
39322;SDS011;25036;53.638;10.134;2022-10-15T04:50:49;13.53;;;10.87;;
39322;SDS011;25036;53.638;10.134;2022-10-15T04:51:49;14.27;;;12.00;;
39322;SDS011;25036;53.638;10.134;2022-10-15T04:52:49;13.13;;;11.00;;
39322;SDS011;25036;53.638;10.134;2022-10-15T04:53:49;16.33;;;11.40;;
39322;SDS011;25036;53.638;10.134;2022-10-15T04:54:49;14.83;;;11.57;;
39322;SDS011;25036;53.638;10.134;2022-10-15T04:55:49;15.67;;;11.80;;
39322;SDS011;25036;53.638;10.134;2022-10-15T04:56:49;13.40;;;12.00;;
39322;SDS011;25036;53.638;10.134;2022-10-15T04:57:50;17.00;;;13.00;;
39322;SDS011;25036;53.638;10.134;2022-10-15T04:58:50;15.67;;;11.63;;
39322;SDS011;25036;53.638;10.134;2022-10-15T04:59:50;15.82;;;12.23;;
39322;SDS011;25036;53.638;10.134;2022-10-15T05:00:51;16.10;;;12.13;;
39322;SDS011;25036;53.638;10.134;2022-10-15T05:01:52;15.37;;;11.83;;
39322;SDS011;25036;53.638;10.134;2022-10-15T05:02:52;15.87;;;12.10;;
39322;SDS011;25036;53.638;10.134;2022-10-15T05:03:52;16.30;;;11.93;;
39322;SDS011;25036;53.638;10.134;2022-10-15T05:04:52;16.27;;;12.00;;
39322;SDS011;25036;53.638;10.134;2022-10-15T05:05:52;14.60;;;11.27;;
39322;SDS011;25036;53.638;10.134;2022-10-15T05:06:53;14.70;;;11.50;;
39322;SDS011;25036;53.638;10.134;2022-10-15T05:07:53;17.17;;;12.03;;
39322;SDS011;25036;53.638;10.134;2022-10-15T05:08:53;16.10;;;12.50;;
39322;SDS011;25036;53.638;10.134;2022-10-15T05:09:53;13.57;;;12.13;;
39322;SDS011;25036;53.638;10.134;2022-10-15T05:10:53;16.48;;;12.98;;
39322;SDS011;25036;53.638;10.134;2022-10-15T05:11:54;16.05;;;12.70;;
39322;SDS011;25036;53.638;10.134;2022-10-15T05:12:54;18.92;;;13.07;;
39322;SDS011;25036;53.638;10.134;2022-10-15T05:13:56;16.67;;;12.10;;
39322;SDS011;25036;53.638;10.134;2022-10-15T05:14:56;15.52;;;12.40;;
39322;SDS011;25036;53.638;10.134;2022-10-15T05:15:56;16.13;;;12.23;;
39322;SDS011;25036;53.638;10.134;2022-10-15T05:16:56;18.52;;;13.27;;
39322;SDS011;25036;53.638;10.134;2022-10-15T05:17:57;16.73;;;11.73;;
39322;SDS011;25036;53.638;10.134;2022-10-15T05:18:58;17.13;;;11.73;;
39322;SDS011;25036;53.638;10.134;2022-10-15T05:19:58;18.27;;;13.48;;
39322;SDS011;25036;53.638;10.134;2022-10-15T05:21:01;18.45;;;13.60;;
39322;SDS011;25036;53.638;10.134;2022-10-15T05:22:02;19.55;;;13.43;;
39322;SDS011;25036;53.638;10.134;2022-10-15T05:23:02;18.80;;;13.07;;
39322;SDS011;25036;53.638;10.134;2022-10-15T05:24:03;17.75;;;13.45;;
39322;SDS011;25036;53.638;10.134;2022-10-15T05:25:04;19.98;;;13.70;;
39322;SDS011;25036;53.638;10.134;2022-10-15T05:26:07;15.40;;;12.52;;
39322;SDS011;25036;53.638;10.134;2022-10-15T05:27:09;18.60;;;13.25;;
39322;SDS011;25036;53.638;10.134;2022-10-15T05:28:09;17.87;;;13.17;;
39322;SDS011;25036;53.638;10.134;2022-10-15T05:29:09;19.20;;;13.33;;
39322;SDS011;25036;53.638;10.134;2022-10-15T05:30:10;21.40;;;13.75;;
39322;SDS011;25036;53.638;10.134;2022-10-15T05:31:14;19.25;;;13.15;;
39322;SDS011;25036;53.638;10.134;2022-10-15T05:32:14;19.55;;;14.27;;
39322;SDS011;25036;53.638;10.134;2022-10-15T05:33:15;17.90;;;13.47;;
39322;SDS011;25036;53.638;10.134;2022-10-15T05:34:15;19.83;;;14.17;;
39322;SDS011;25036;53.638;10.134;2022-10-15T05:35:15;20.83;;;14.47;;
39322;SDS011;25036;53.638;10.134;2022-10-15T05:37:18;18.23;;;13.50;;
39322;SDS011;25036;53.638;10.134;2022-10-15T05:38:18;21.30;;;14.77;;
39322;SDS011;25036;53.638;10.134;2022-10-15T05:39:18;20.43;;;14.60;;
39322;SDS011;25036;53.638;10.134;2022-10-15T05:40:18;22.63;;;15.05;;
39322;SDS011;25036;53.638;10.134;2022-10-15T05:41:19;20.17;;;14.87;;
39322;SDS011;25036;53.638;10.134;2022-10-15T05:42:19;21.15;;;15.30;;
39322;SDS011;25036;53.638;10.134;2022-10-15T05:43:19;19.20;;;14.88;;
39322;SDS011;25036;53.638;10.134;2022-10-15T05:44:19;22.87;;;15.37;;
39322;SDS011;25036;53.638;10.134;2022-10-15T05:45:20;21.93;;;14.73;;
39322;SDS011;25036;53.638;10.134;2022-10-15T05:46:20;23.33;;;14.77;;
39322;SDS011;25036;53.638;10.134;2022-10-15T05:47:20;19.55;;;15.18;;
39322;SDS011;25036;53.638;10.134;2022-10-15T05:48:20;24.57;;;17.43;;
39322;SDS011;25036;53.638;10.134;2022-10-15T05:49:21;22.40;;;15.55;;
39322;SDS011;25036;53.638;10.134;2022-10-15T05:50:21;22.27;;;15.90;;
39322;SDS011;25036;53.638;10.134;2022-10-15T05:51:22;21.92;;;15.23;;
39322;SDS011;25036;53.638;10.134;2022-10-15T05:52:23;22.10;;;15.88;;
39322;SDS011;25036;53.638;10.134;2022-10-15T05:53:23;22.50;;;15.82;;
39322;SDS011;25036;53.638;10.134;2022-10-15T05:54:23;25.00;;;17.03;;
39322;SDS011;25036;53.638;10.134;2022-10-15T05:55:23;21.42;;;16.48;;
39322;SDS011;25036;53.638;10.134;2022-10-15T05:56:23;21.63;;;15.93;;
39322;SDS011;25036;53.638;10.134;2022-10-15T05:57:24;23.25;;;15.75;;
39322;SDS011;25036;53.638;10.134;2022-10-15T05:58:24;21.77;;;16.53;;
39322;SDS011;25036;53.638;10.134;2022-10-15T05:59:25;21.90;;;14.57;;
39322;SDS011;25036;53.638;10.134;2022-10-15T06:00:25;23.50;;;14.60;;
39322;SDS011;25036;53.638;10.134;2022-10-15T06:01:25;23.20;;;16.30;;
39322;SDS011;25036;53.638;10.134;2022-10-15T06:02:25;23.87;;;16.53;;
39322;SDS011;25036;53.638;10.134;2022-10-15T06:03:26;21.90;;;16.63;;
39322;SDS011;25036;53.638;10.134;2022-10-15T06:04:26;23.30;;;15.85;;
39322;SDS011;25036;53.638;10.134;2022-10-15T06:05:26;20.20;;;15.33;;
39322;SDS011;25036;53.638;10.134;2022-10-15T06:06:26;26.60;;;17.63;;
39322;SDS011;25036;53.638;10.134;2022-10-15T06:07:27;22.60;;;16.83;;
39322;SDS011;25036;53.638;10.134;2022-10-15T06:08:27;24.93;;;16.93;;
39322;SDS011;25036;53.638;10.134;2022-10-15T06:09:28;21.58;;;15.38;;
39322;SDS011;25036;53.638;10.134;2022-10-15T06:10:28;21.50;;;15.17;;
39322;SDS011;25036;53.638;10.134;2022-10-15T06:11:28;22.33;;;14.50;;
39322;SDS011;25036;53.638;10.134;2022-10-15T06:12:28;23.52;;;15.45;;
39322;SDS011;25036;53.638;10.134;2022-10-15T06:13:28;20.10;;;14.10;;
39322;SDS011;25036;53.638;10.134;2022-10-15T06:14:28;20.47;;;15.13;;
39322;SDS011;25036;53.638;10.134;2022-10-15T06:15:29;19.63;;;14.68;;
39322;SDS011;25036;53.638;10.134;2022-10-15T06:16:29;20.77;;;15.85;;
39322;SDS011;25036;53.638;10.134;2022-10-15T06:17:29;21.87;;;15.57;;
39322;SDS011;25036;53.638;10.134;2022-10-15T06:18:29;20.87;;;14.63;;
39322;SDS011;25036;53.638;10.134;2022-10-15T06:19:29;23.33;;;16.20;;
39322;SDS011;25036;53.638;10.134;2022-10-15T06:20:30;21.55;;;14.65;;